sensor_id;sensor_type;location;lat;lon;timestamp;temperature;humidity
31271;DHT22;17904;47.420;9.310;2022-09-09T00:00:47;13.20;99.90
31271;DHT22;17904;47.420;9.310;2022-09-09T00:03:24;13.20;99.90
31271;DHT22;17904;47.420;9.310;2022-09-09T00:06:21;13.30;99.90
31271;DHT22;17904;47.420;9.310;2022-09-09T00:09:18;13.20;99.90
31271;DHT22;17904;47.420;9.310;2022-09-09T00:12:05;13.20;99.90
31271;DHT22;17904;47.420;9.310;2022-09-09T00:20:16;13.20;99.90
31271;DHT22;17904;47.420;9.310;2022-09-09T00:25:47;13.30;99.90
31271;DHT22;17904;47.420;9.310;2022-09-09T00:28:20;13.30;99.90
31271;DHT22;17904;47.420;9.310;2022-09-09T00:30:48;13.30;99.90
31271;DHT22;17904;47.420;9.310;2022-09-09T00:33:19;13.30;99.90
31271;DHT22;17904;47.420;9.310;2022-09-09T00:35:51;13.30;99.90
31271;DHT22;17904;47.420;9.310;2022-09-09T00:38:35;13.30;99.90
31271;DHT22;17904;47.420;9.310;2022-09-09T00:41:21;13.30;99.90
31271;DHT22;17904;47.420;9.310;2022-09-09T00:57:39;13.30;99.90
31271;DHT22;17904;47.420;9.310;2022-09-09T01:00:30;13.30;99.90
31271;DHT22;17904;47.420;9.310;2022-09-09T01:17:21;13.30;99.90
31271;DHT22;17904;47.420;9.310;2022-09-09T01:19:57;13.30;99.90
31271;DHT22;17904;47.420;9.310;2022-09-09T01:23:02;13.30;99.90
31271;DHT22;17904;47.420;9.310;2022-09-09T01:28:22;13.30;99.90
31271;DHT22;17904;47.420;9.310;2022-09-09T01:30:55;13.30;99.90
31271;DHT22;17904;47.420;9.310;2022-09-09T01:33:25;13.30;99.90
31271;DHT22;17904;47.420;9.310;2022-09-09T01:36:05;13.30;99.90
31271;DHT22;17904;47.420;9.310;2022-09-09T01:38:42;13.30;99.90
31271;DHT22;17904;47.420;9.310;2022-09-09T01:41:09;13.20;99.90
31271;DHT22;17904;47.420;9.310;2022-09-09T01:43:50;13.20;99.90
31271;DHT22;17904;47.420;9.310;2022-09-09T01:46:18;13.20;99.90
31271;DHT22;17904;47.420;9.310;2022-09-09T01:48:50;13.20;99.90
31271;DHT22;17904;47.420;9.310;2022-09-09T01:51:18;13.30;99.90
31271;DHT22;17904;47.420;9.310;2022-09-09T01:53:46;13.20;99.90
31271;DHT22;17904;47.420;9.310;2022-09-09T02:02:17;13.30;99.90
31271;DHT22;17904;47.420;9.310;2022-09-09T02:05:00;13.30;99.90
31271;DHT22;17904;47.420;9.310;2022-09-09T02:07:43;13.20;99.90
31271;DHT22;17904;47.420;9.310;2022-09-09T02:10:30;13.20;99.90
31271;DHT22;17904;47.420;9.310;2022-09-09T02:13:16;13.20;99.90
31271;DHT22;17904;47.420;9.310;2022-09-09T02:16:05;13.20;99.90
31271;DHT22;17904;47.420;9.310;2022-09-09T02:21:11;13.10;99.90
31271;DHT22;17904;47.420;9.310;2022-09-09T02:23:40;13.00;99.90
31271;DHT22;17904;47.420;9.310;2022-09-09T02:26:12;13.00;99.90
31271;DHT22;17904;47.420;9.310;2022-09-09T02:28:51;13.00;99.90
31271;DHT22;17904;47.420;9.310;2022-09-09T02:31:22;13.00;99.90
31271;DHT22;17904;47.420;9.310;2022-09-09T02:33:55;13.00;99.90
31271;DHT22;17904;47.420;9.310;2022-09-09T02:36:28;13.00;99.90
31271;DHT22;17904;47.420;9.310;2022-09-09T02:38:56;13.00;99.90
31271;DHT22;17904;47.420;9.310;2022-09-09T02:41:32;13.00;99.90
31271;DHT22;17904;47.420;9.310;2022-09-09T02:44:01;13.00;99.90
31271;DHT22;17904;47.420;9.310;2022-09-09T02:49:52;13.00;99.90
31271;DHT22;17904;47.420;9.310;2022-09-09T02:55:37;13.00;99.90
31271;DHT22;17904;47.420;9.310;2022-09-09T02:58:09;12.90;99.90
31271;DHT22;17904;47.420;9.310;2022-09-09T03:00:39;12.90;99.90
31271;DHT22;17904;47.420;9.310;2022-09-09T03:03:07;12.90;99.90
31271;DHT22;17904;47.420;9.310;2022-09-09T03:05:37;12.90;99.90
31271;DHT22;17904;47.420;9.310;2022-09-09T03:08:05;12.80;99.90
31271;DHT22;17904;47.420;9.310;2022-09-09T03:10:32;12.90;99.90
31271;DHT22;17904;47.420;9.310;2022-09-09T03:12:59;12.90;99.90
31271;DHT22;17904;47.420;9.310;2022-09-09T03:15:32;12.90;99.90
31271;DHT22;17904;47.420;9.310;2022-09-09T03:18:00;12.90;99.90
31271;DHT22;17904;47.420;9.310;2022-09-09T03:20:28;12.90;99.90
31271;DHT22;17904;47.420;9.310;2022-09-09T03:22:56;12.90;99.90
31271;DHT22;17904;47.420;9.310;2022-09-09T03:25:24;12.90;99.90
31271;DHT22;17904;47.420;9.310;2022-09-09T03:27:53;12.90;99.90
31271;DHT22;17904;47.420;9.310;2022-09-09T03:30:26;12.90;99.90
31271;DHT22;17904;47.420;9.310;2022-09-09T03:32:55;12.90;99.90
31271;DHT22;17904;47.420;9.310;2022-09-09T03:35:26;12.90;99.90
31271;DHT22;17904;47.420;9.310;2022-09-09T03:37:53;12.90;99.90
31271;DHT22;17904;47.420;9.310;2022-09-09T03:40:22;12.90;99.90
31271;DHT22;17904;47.420;9.310;2022-09-09T03:42:49;12.90;99.90
31271;DHT22;17904;47.420;9.310;2022-09-09T03:45:17;12.90;99.90
31271;DHT22;17904;47.420;9.310;2022-09-09T03:47:43;13.00;99.90
31271;DHT22;17904;47.420;9.310;2022-09-09T03:50:11;13.10;99.90
31271;DHT22;17904;47.420;9.310;2022-09-09T03:52:43;13.10;99.90
31271;DHT22;17904;47.420;9.310;2022-09-09T03:55:17;13.20;99.90
31271;DHT22;17904;47.420;9.310;2022-09-09T03:57:44;13.30;99.90
31271;DHT22;17904;47.420;9.310;2022-09-09T04:00:13;13.30;99.90
31271;DHT22;17904;47.420;9.310;2022-09-09T04:02:47;13.40;99.90
31271;DHT22;17904;47.420;9.310;2022-09-09T04:05:15;13.40;99.90
31271;DHT22;17904;47.420;9.310;2022-09-09T04:07:45;13.50;99.90
31271;DHT22;17904;47.420;9.310;2022-09-09T04:10:12;13.50;99.90
31271;DHT22;17904;47.420;9.310;2022-09-09T04:12:39;13.60;99.90
31271;DHT22;17904;47.420;9.310;2022-09-09T04:15:07;13.70;99.90
31271;DHT22;17904;47.420;9.310;2022-09-09T04:17:36;13.80;99.90
31271;DHT22;17904;47.420;9.310;2022-09-09T04:20:03;13.80;99.90
31271;DHT22;17904;47.420;9.310;2022-09-09T04:22:31;13.80;99.90
31271;DHT22;17904;47.420;9.310;2022-09-09T04:24:59;13.80;99.90
31271;DHT22;17904;47.420;9.310;2022-09-09T04:27:28;13.80;99.90
31271;DHT22;17904;47.420;9.310;2022-09-09T04:29:55;13.80;99.90
31271;DHT22;17904;47.420;9.310;2022-09-09T04:32:25;13.80;99.90
31271;DHT22;17904;47.420;9.310;2022-09-09T04:34:53;13.80;99.90
31271;DHT22;17904;47.420;9.310;2022-09-09T04:37:21;13.80;99.90
31271;DHT22;17904;47.420;9.310;2022-09-09T04:39:48;13.80;99.90
31271;DHT22;17904;47.420;9.310;2022-09-09T04:42:16;13.70;99.90
31271;DHT22;17904;47.420;9.310;2022-09-09T04:44:45;13.80;99.90
31271;DHT22;17904;47.420;9.310;2022-09-09T04:47:12;13.80;99.90
31271;DHT22;17904;47.420;9.310;2022-09-09T04:49:41;13.80;99.90
31271;DHT22;17904;47.420;9.310;2022-09-09T04:52:08;13.80;99.90
31271;DHT22;17904;47.420;9.310;2022-09-09T04:54:36;13.80;99.90
31271;DHT22;17904;47.420;9.310;2022-09-09T04:57:04;13.80;99.90
31271;DHT22;17904;47.420;9.310;2022-09-09T04:59:32;13.80;99.90
31271;DHT22;17904;47.420;9.310;2022-09-09T05:02:01;13.80;99.90
31271;DHT22;17904;47.420;9.310;2022-09-09T05:04:29;13.80;99.90
31271;DHT22;17904;47.420;9.310;2022-09-09T05:06:56;13.80;99.90
31271;DHT22;17904;47.420;9.310;2022-09-09T05:09:23;13.90;99.90
31271;DHT22;17904;47.420;9.310;2022-09-09T05:11:51;13.80;99.90
31271;DHT22;17904;47.420;9.310;2022-09-09T05:14:30;13.90;99.90
31271;DHT22;17904;47.420;9.310;2022-09-09T05:16:59;13.90;99.90
31271;DHT22;17904;47.420;9.310;2022-09-09T05:19:26;13.90;99.90
31271;DHT22;17904;47.420;9.310;2022-09-09T05:21:53;13.90;99.90
31271;DHT22;17904;47.420;9.310;2022-09-09T05:24:27;13.90;99.90
31271;DHT22;17904;47.420;9.310;2022-09-09T05:26:57;13.90;99.90
31271;DHT22;17904;47.420;9.310;2022-09-09T05:29:25;13.90;99.90
31271;DHT22;17904;47.420;9.310;2022-09-09T05:31:55;13.90;99.90
31271;DHT22;17904;47.420;9.310;2022-09-09T05:34:22;14.00;99.90
31271;DHT22;17904;47.420;9.310;2022-09-09T05:36:50;14.00;99.90
31271;DHT22;17904;47.420;9.310;2022-09-09T05:39:20;14.00;99.90
31271;DHT22;17904;47.420;9.310;2022-09-09T05:41:48;14.00;99.90
31271;DHT22;17904;47.420;9.310;2022-09-09T05:44:15;14.10;99.90
31271;DHT22;17904;47.420;9.310;2022-09-09T05:46:44;14.10;99.90
31271;DHT22;17904;47.420;9.310;2022-09-09T05:49:13;14.20;99.90
31271;DHT22;17904;47.420;9.310;2022-09-09T05:51:43;14.30;99.90
31271;DHT22;17904;47.420;9.310;2022-09-09T05:54:13;14.40;99.90
31271;DHT22;17904;47.420;9.310;2022-09-09T05:56:46;14.40;99.90
31271;DHT22;17904;47.420;9.310;2022-09-09T05:59:18;14.50;99.90
31271;DHT22;17904;47.420;9.310;2022-09-09T06:01:45;14.50;99.90
31271;DHT22;17904;47.420;9.310;2022-09-09T06:04:24;14.60;99.90
31271;DHT22;17904;47.420;9.310;2022-09-09T06:06:52;14.60;99.90
31271;DHT22;17904;47.420;9.310;2022-09-09T06:09:22;14.70;99.90
31271;DHT22;17904;47.420;9.310;2022-09-09T06:11:49;14.60;99.90
31271;DHT22;17904;47.420;9.310;2022-09-09T06:14:18;14.60;99.90
31271;DHT22;17904;47.420;9.310;2022-09-09T06:16:47;14.60;99.90
31271;DHT22;17904;47.420;9.310;2022-09-09T06:19:21;14.60;99.90
31271;DHT22;17904;47.420;9.310;2022-09-09T06:21:48;14.60;99.90
31271;DHT22;17904;47.420;9.310;2022-09-09T06:24:17;14.50;99.90
31271;DHT22;17904;47.420;9.310;2022-09-09T06:26:46;14.50;99.90
31271;DHT22;17904;47.420;9.310;2022-09-09T06:29:19;14.50;99.90
31271;DHT22;17904;47.420;9.310;2022-09-09T06:31:47;14.50;99.90
31271;DHT22;17904;47.420;9.310;2022-09-09T06:34:19;14.40;99.90
31271;DHT22;17904;47.420;9.310;2022-09-09T06:36:51;14.40;99.90
31271;DHT22;17904;47.420;9.310;2022-09-09T06:39:19;14.40;99.90
31271;DHT22;17904;47.420;9.310;2022-09-09T06:41:46;14.40;99.90
31271;DHT22;17904;47.420;9.310;2022-09-09T06:44:32;14.50;99.90
31271;DHT22;17904;47.420;9.310;2022-09-09T06:47:04;14.50;99.90
31271;DHT22;17904;47.420;9.310;2022-09-09T06:49:32;14.50;99.90
31271;DHT22;17904;47.420;9.310;2022-09-09T06:52:01;14.50;99.90
31271;DHT22;17904;47.420;9.310;2022-09-09T06:54:29;14.50;99.90
31271;DHT22;17904;47.420;9.310;2022-09-09T06:56:57;14.60;99.90
31271;DHT22;17904;47.420;9.310;2022-09-09T06:59:30;14.60;99.90
31271;DHT22;17904;47.420;9.310;2022-09-09T07:01:59;14.60;99.90
31271;DHT22;17904;47.420;9.310;2022-09-09T07:04:26;14.60;99.90
31271;DHT22;17904;47.420;9.310;2022-09-09T07:06:54;14.70;99.90
31271;DHT22;17904;47.420;9.310;2022-09-09T07:09:23;14.70;99.90
31271;DHT22;17904;47.420;9.310;2022-09-09T07:11:53;14.80;99.90
31271;DHT22;17904;47.420;9.310;2022-09-09T07:14:23;14.80;99.90
31271;DHT22;17904;47.420;9.310;2022-09-09T07:16:57;14.90;99.90
31271;DHT22;17904;47.420;9.310;2022-09-09T07:19:27;14.90;99.90
31271;DHT22;17904;47.420;9.310;2022-09-09T07:21:55;14.90;99.90
31271;DHT22;17904;47.420;9.310;2022-09-09T07:24:24;14.90;99.90
31271;DHT22;17904;47.420;9.310;2022-09-09T07:26:52;15.00;99.90
31271;DHT22;17904;47.420;9.310;2022-09-09T07:29:20;15.00;99.90
31271;DHT22;17904;47.420;9.310;2022-09-09T07:31:49;15.00;99.90
31271;DHT22;17904;47.420;9.310;2022-09-09T07:34:23;14.90;99.90
31271;DHT22;17904;47.420;9.310;2022-09-09T07:36:51;14.90;99.90
31271;DHT22;17904;47.420;9.310;2022-09-09T07:39:19;15.00;99.90
31271;DHT22;17904;47.420;9.310;2022-09-09T07:41:50;14.90;99.90
31271;DHT22;17904;47.420;9.310;2022-09-09T07:44:23;15.00;99.90
31271;DHT22;17904;47.420;9.310;2022-09-09T07:47:03;14.90;99.90
31271;DHT22;17904;47.420;9.310;2022-09-09T07:49:43;14.90;99.90
31271;DHT22;17904;47.420;9.310;2022-09-09T07:52:10;15.00;99.90
31271;DHT22;17904;47.420;9.310;2022-09-09T07:54:45;15.00;99.90
31271;DHT22;17904;47.420;9.310;2022-09-09T07:57:13;14.90;99.90
31271;DHT22;17904;47.420;9.310;2022-09-09T07:59:40;15.00;99.90
31271;DHT22;17904;47.420;9.310;2022-09-09T08:02:08;15.00;99.90
31271;DHT22;17904;47.420;9.310;2022-09-09T08:04:36;15.00;99.90
31271;DHT22;17904;47.420;9.310;2022-09-09T08:07:03;15.00;99.90
31271;DHT22;17904;47.420;9.310;2022-09-09T08:09:41;15.00;99.90
31271;DHT22;17904;47.420;9.310;2022-09-09T08:12:15;15.00;99.90
31271;DHT22;17904;47.420;9.310;2022-09-09T08:14:43;15.00;99.90
31271;DHT22;17904;47.420;9.310;2022-09-09T08:17:10;15.10;99.90
31271;DHT22;17904;47.420;9.310;2022-09-09T08:19:38;15.10;99.90
31271;DHT22;17904;47.420;9.310;2022-09-09T08:22:10;15.10;99.90
31271;DHT22;17904;47.420;9.310;2022-09-09T08:24:39;15.20;99.90
31271;DHT22;17904;47.420;9.310;2022-09-09T08:27:08;15.20;99.90
31271;DHT22;17904;47.420;9.310;2022-09-09T08:29:38;15.30;99.90
31271;DHT22;17904;47.420;9.310;2022-09-09T08:32:06;15.40;99.90
31271;DHT22;17904;47.420;9.310;2022-09-09T08:34:34;15.40;99.90
31271;DHT22;17904;47.420;9.310;2022-09-09T08:37:05;15.50;99.90
31271;DHT22;17904;47.420;9.310;2022-09-09T08:39:37;15.60;99.90
31271;DHT22;17904;47.420;9.310;2022-09-09T08:50:36;16.30;99.90
31271;DHT22;17904;47.420;9.310;2022-09-09T08:53:15;16.40;99.90
31271;DHT22;17904;47.420;9.310;2022-09-09T08:58:54;16.40;99.90
31271;DHT22;17904;47.420;9.310;2022-09-09T09:01:41;16.40;99.90
31271;DHT22;17904;47.420;9.310;2022-09-09T09:13:34;16.70;99.90
31271;DHT22;17904;47.420;9.310;2022-09-09T09:18:46;17.00;99.90
31271;DHT22;17904;47.420;9.310;2022-09-09T09:21:21;17.10;99.90
31271;DHT22;17904;47.420;9.310;2022-09-09T09:23:57;17.40;99.90
31271;DHT22;17904;47.420;9.310;2022-09-09T09:26:33;17.50;99.90
31271;DHT22;17904;47.420;9.310;2022-09-09T09:29:12;17.60;99.90
31271;DHT22;17904;47.420;9.310;2022-09-09T09:32:03;17.80;99.90
31271;DHT22;17904;47.420;9.310;2022-09-09T09:34:31;17.90;99.90
31271;DHT22;17904;47.420;9.310;2022-09-09T09:37:00;17.90;99.90
31271;DHT22;17904;47.420;9.310;2022-09-09T09:39:33;17.90;99.90
31271;DHT22;17904;47.420;9.310;2022-09-09T09:42:27;17.80;99.90
31271;DHT22;17904;47.420;9.310;2022-09-09T09:44:56;17.80;99.90
31271;DHT22;17904;47.420;9.310;2022-09-09T09:47:34;17.70;99.90
31271;DHT22;17904;47.420;9.310;2022-09-09T09:50:19;17.60;99.90
31271;DHT22;17904;47.420;9.310;2022-09-09T09:52:55;17.60;99.90
31271;DHT22;17904;47.420;9.310;2022-09-09T09:55:29;17.50;99.90
31271;DHT22;17904;47.420;9.310;2022-09-09T09:58:05;17.50;99.90
31271;DHT22;17904;47.420;9.310;2022-09-09T10:00:33;17.50;99.90
31271;DHT22;17904;47.420;9.310;2022-09-09T10:03:27;17.60;99.90
31271;DHT22;17904;47.420;9.310;2022-09-09T10:05:56;17.70;99.90
31271;DHT22;17904;47.420;9.310;2022-09-09T10:08:25;17.70;99.90
31271;DHT22;17904;47.420;9.310;2022-09-09T10:11:04;17.70;99.90
31271;DHT22;17904;47.420;9.310;2022-09-09T10:24:50;20.30;99.90
31271;DHT22;17904;47.420;9.310;2022-09-09T10:31:03;21.00;99.90
31271;DHT22;17904;47.420;9.310;2022-09-09T10:36:13;20.90;99.90
31271;DHT22;17904;47.420;9.310;2022-09-09T10:38:41;20.80;99.90
31271;DHT22;17904;47.420;9.310;2022-09-09T10:59:55;21.70;99.50
31271;DHT22;17904;47.420;9.310;2022-09-09T11:02:28;21.40;99.90
31271;DHT22;17904;47.420;9.310;2022-09-09T11:07:50;20.70;99.90
31271;DHT22;17904;47.420;9.310;2022-09-09T11:12:48;19.90;99.90
31271;DHT22;17904;47.420;9.310;2022-09-09T11:15:31;19.70;99.90
31271;DHT22;17904;47.420;9.310;2022-09-09T11:18:01;19.40;99.90
31271;DHT22;17904;47.420;9.310;2022-09-09T11:20:30;19.10;99.90
31271;DHT22;17904;47.420;9.310;2022-09-09T11:23:23;18.80;99.90
31271;DHT22;17904;47.420;9.310;2022-09-09T11:25:55;18.50;99.90
31271;DHT22;17904;47.420;9.310;2022-09-09T11:28:58;18.30;99.90
31271;DHT22;17904;47.420;9.310;2022-09-09T11:40:26;17.30;99.90
31271;DHT22;17904;47.420;9.310;2022-09-09T11:45:35;17.00;99.90
31271;DHT22;17904;47.420;9.310;2022-09-09T11:48:04;17.00;99.90
31271;DHT22;17904;47.420;9.310;2022-09-09T11:50:35;17.00;99.90
31271;DHT22;17904;47.420;9.310;2022-09-09T11:53:23;17.00;99.90
31271;DHT22;17904;47.420;9.310;2022-09-09T11:58:43;17.20;99.90
31271;DHT22;17904;47.420;9.310;2022-09-09T12:01:27;17.30;99.90
31271;DHT22;17904;47.420;9.310;2022-09-09T12:04:09;17.40;99.90
31271;DHT22;17904;47.420;9.310;2022-09-09T12:17:21;17.60;99.90
31271;DHT22;17904;47.420;9.310;2022-09-09T12:20:06;17.60;99.90
31271;DHT22;17904;47.420;9.310;2022-09-09T12:25:23;18.10;99.90
31271;DHT22;17904;47.420;9.310;2022-09-09T12:28:01;18.40;99.90
31271;DHT22;17904;47.420;9.310;2022-09-09T12:30:39;18.80;99.90
31271;DHT22;17904;47.420;9.310;2022-09-09T12:33:17;19.00;99.90
31271;DHT22;17904;47.420;9.310;2022-09-09T12:35:47;19.40;99.90
31271;DHT22;17904;47.420;9.310;2022-09-09T12:38:34;19.60;99.90
31271;DHT22;17904;47.420;9.310;2022-09-09T12:41:01;19.70;99.90
31271;DHT22;17904;47.420;9.310;2022-09-09T12:43:28;19.90;99.90
31271;DHT22;17904;47.420;9.310;2022-09-09T12:46:02;20.10;99.90
31271;DHT22;17904;47.420;9.310;2022-09-09T12:48:40;20.40;99.90
31271;DHT22;17904;47.420;9.310;2022-09-09T12:51:41;20.60;99.90
31271;DHT22;17904;47.420;9.310;2022-09-09T12:54:13;20.80;99.90
31271;DHT22;17904;47.420;9.310;2022-09-09T12:56:46;20.90;95.60
31271;DHT22;17904;47.420;9.310;2022-09-09T12:59:25;21.00;95.20
31271;DHT22;17904;47.420;9.310;2022-09-09T13:01:58;21.10;95.30
31271;DHT22;17904;47.420;9.310;2022-09-09T13:04:26;21.10;95.90
31271;DHT22;17904;47.420;9.310;2022-09-09T13:06:53;21.20;93.70
31271;DHT22;17904;47.420;9.310;2022-09-09T13:09:20;21.30;90.50
31271;DHT22;17904;47.420;9.310;2022-09-09T13:11:51;21.40;92.90
31271;DHT22;17904;47.420;9.310;2022-09-09T13:14:28;21.60;92.60
31271;DHT22;17904;47.420;9.310;2022-09-09T13:16:58;21.80;90.10
31271;DHT22;17904;47.420;9.310;2022-09-09T13:19:26;22.00;92.70
31271;DHT22;17904;47.420;9.310;2022-09-09T13:21:56;22.20;88.20
31271;DHT22;17904;47.420;9.310;2022-09-09T13:24:33;22.30;89.30
31271;DHT22;17904;47.420;9.310;2022-09-09T13:27:04;22.20;85.30
31271;DHT22;17904;47.420;9.310;2022-09-09T13:29:32;22.20;90.00
31271;DHT22;17904;47.420;9.310;2022-09-09T13:32:07;22.30;91.60
31271;DHT22;17904;47.420;9.310;2022-09-09T13:34:51;22.50;90.00
31271;DHT22;17904;47.420;9.310;2022-09-09T13:37:38;22.60;85.90
31271;DHT22;17904;47.420;9.310;2022-09-09T13:40:18;22.80;82.70
31271;DHT22;17904;47.420;9.310;2022-09-09T13:42:46;22.90;81.50
31271;DHT22;17904;47.420;9.310;2022-09-09T13:45:32;23.10;79.20
31271;DHT22;17904;47.420;9.310;2022-09-09T13:48:09;23.20;79.00
31271;DHT22;17904;47.420;9.310;2022-09-09T13:50:36;23.30;80.80
31271;DHT22;17904;47.420;9.310;2022-09-09T13:53:03;23.50;76.30
31271;DHT22;17904;47.420;9.310;2022-09-09T13:55:30;23.50;78.30
31271;DHT22;17904;47.420;9.310;2022-09-09T13:58:00;23.50;76.90
31271;DHT22;17904;47.420;9.310;2022-09-09T14:00:30;23.40;70.10
31271;DHT22;17904;47.420;9.310;2022-09-09T14:02:58;23.40;74.90
31271;DHT22;17904;47.420;9.310;2022-09-09T14:05:30;23.50;75.70
31271;DHT22;17904;47.420;9.310;2022-09-09T14:07:58;23.60;71.70
31271;DHT22;17904;47.420;9.310;2022-09-09T14:10:27;23.70;72.40
31271;DHT22;17904;47.420;9.310;2022-09-09T14:12:54;23.70;72.50
31271;DHT22;17904;47.420;9.310;2022-09-09T14:15:21;23.60;67.80
31271;DHT22;17904;47.420;9.310;2022-09-09T14:17:48;23.50;70.20
31271;DHT22;17904;47.420;9.310;2022-09-09T14:20:15;23.50;71.20
31271;DHT22;17904;47.420;9.310;2022-09-09T14:22:44;23.40;70.50
31271;DHT22;17904;47.420;9.310;2022-09-09T14:25:11;23.40;69.80
31271;DHT22;17904;47.420;9.310;2022-09-09T14:27:40;23.20;71.00
31271;DHT22;17904;47.420;9.310;2022-09-09T14:30:09;23.30;75.00
31271;DHT22;17904;47.420;9.310;2022-09-09T14:32:36;23.30;69.10
31271;DHT22;17904;47.420;9.310;2022-09-09T14:35:03;23.40;71.50
31271;DHT22;17904;47.420;9.310;2022-09-09T14:37:30;23.40;72.00
31271;DHT22;17904;47.420;9.310;2022-09-09T14:39:58;23.40;71.70
31271;DHT22;17904;47.420;9.310;2022-09-09T14:42:25;23.40;69.10
31271;DHT22;17904;47.420;9.310;2022-09-09T14:44:53;23.40;69.00
31271;DHT22;17904;47.420;9.310;2022-09-09T14:47:20;23.30;70.60
31271;DHT22;17904;47.420;9.310;2022-09-09T14:49:47;23.30;71.70
31271;DHT22;17904;47.420;9.310;2022-09-09T14:52:16;23.30;68.70
31271;DHT22;17904;47.420;9.310;2022-09-09T14:54:43;23.10;67.90
31271;DHT22;17904;47.420;9.310;2022-09-09T14:57:10;22.70;71.20
31271;DHT22;17904;47.420;9.310;2022-09-09T14:59:37;22.40;73.90
31271;DHT22;17904;47.420;9.310;2022-09-09T15:02:04;22.00;75.50
31271;DHT22;17904;47.420;9.310;2022-09-09T15:04:31;21.80;75.20
31271;DHT22;17904;47.420;9.310;2022-09-09T15:06:58;21.70;80.90
31271;DHT22;17904;47.420;9.310;2022-09-09T15:09:26;21.80;78.90
31271;DHT22;17904;47.420;9.310;2022-09-09T15:11:53;22.00;81.10
31271;DHT22;17904;47.420;9.310;2022-09-09T15:14:20;22.10;82.60
31271;DHT22;17904;47.420;9.310;2022-09-09T15:16:51;22.30;81.40
31271;DHT22;17904;47.420;9.310;2022-09-09T15:19:18;22.40;78.80
31271;DHT22;17904;47.420;9.310;2022-09-09T15:21:45;22.40;77.50
31271;DHT22;17904;47.420;9.310;2022-09-09T15:24:11;22.40;77.70
31271;DHT22;17904;47.420;9.310;2022-09-09T15:26:40;22.50;80.70
31271;DHT22;17904;47.420;9.310;2022-09-09T15:29:07;22.50;84.50
31271;DHT22;17904;47.420;9.310;2022-09-09T15:31:35;22.30;76.50
31271;DHT22;17904;47.420;9.310;2022-09-09T15:34:06;22.10;79.60
31271;DHT22;17904;47.420;9.310;2022-09-09T15:36:42;21.70;79.00
31271;DHT22;17904;47.420;9.310;2022-09-09T15:39:12;21.40;82.50
31271;DHT22;17904;47.420;9.310;2022-09-09T15:41:40;21.20;89.70
31271;DHT22;17904;47.420;9.310;2022-09-09T15:44:07;21.10;95.60
31271;DHT22;17904;47.420;9.310;2022-09-09T15:46:36;20.90;94.90
31271;DHT22;17904;47.420;9.310;2022-09-09T15:49:08;20.70;97.20
31271;DHT22;17904;47.420;9.310;2022-09-09T15:51:37;20.50;99.20
31271;DHT22;17904;47.420;9.310;2022-09-09T15:54:12;20.30;99.90
31271;DHT22;17904;47.420;9.310;2022-09-09T15:56:40;20.10;99.90
31271;DHT22;17904;47.420;9.310;2022-09-09T15:59:07;20.00;99.90
31271;DHT22;17904;47.420;9.310;2022-09-09T16:01:34;19.90;99.90
31271;DHT22;17904;47.420;9.310;2022-09-09T16:04:02;19.80;99.90
31271;DHT22;17904;47.420;9.310;2022-09-09T16:06:29;19.70;99.90
31271;DHT22;17904;47.420;9.310;2022-09-09T16:08:57;19.70;99.90
31271;DHT22;17904;47.420;9.310;2022-09-09T16:11:30;19.60;99.90
31271;DHT22;17904;47.420;9.310;2022-09-09T16:13:58;19.50;99.90
31271;DHT22;17904;47.420;9.310;2022-09-09T16:16:27;19.40;99.90
31271;DHT22;17904;47.420;9.310;2022-09-09T16:19:00;19.40;99.90
31271;DHT22;17904;47.420;9.310;2022-09-09T16:21:31;19.30;99.90
31271;DHT22;17904;47.420;9.310;2022-09-09T16:24:00;19.20;99.90
31271;DHT22;17904;47.420;9.310;2022-09-09T16:26:29;19.10;99.90
31271;DHT22;17904;47.420;9.310;2022-09-09T16:28:57;19.00;99.90
31271;DHT22;17904;47.420;9.310;2022-09-09T16:31:28;18.90;99.90
31271;DHT22;17904;47.420;9.310;2022-09-09T16:33:56;18.90;99.90
31271;DHT22;17904;47.420;9.310;2022-09-09T16:36:24;18.80;99.90
31271;DHT22;17904;47.420;9.310;2022-09-09T16:39:00;18.70;99.90
31271;DHT22;17904;47.420;9.310;2022-09-09T16:41:28;18.70;99.90
31271;DHT22;17904;47.420;9.310;2022-09-09T16:43:57;18.50;99.90
31271;DHT22;17904;47.420;9.310;2022-09-09T16:46:27;18.50;99.90
31271;DHT22;17904;47.420;9.310;2022-09-09T16:49:01;18.40;99.90
31271;DHT22;17904;47.420;9.310;2022-09-09T16:51:37;18.30;99.90
31271;DHT22;17904;47.420;9.310;2022-09-09T16:54:06;18.20;99.90
31271;DHT22;17904;47.420;9.310;2022-09-09T16:56:36;18.00;99.90
31271;DHT22;17904;47.420;9.310;2022-09-09T16:59:12;17.80;99.90
31271;DHT22;17904;47.420;9.310;2022-09-09T17:01:42;17.60;99.90
31271;DHT22;17904;47.420;9.310;2022-09-09T17:04:15;17.50;99.90
31271;DHT22;17904;47.420;9.310;2022-09-09T17:06:51;17.30;99.90
31271;DHT22;17904;47.420;9.310;2022-09-09T17:09:20;17.20;99.90
31271;DHT22;17904;47.420;9.310;2022-09-09T17:11:48;17.00;99.90
31271;DHT22;17904;47.420;9.310;2022-09-09T17:14:19;16.90;99.90
31271;DHT22;17904;47.420;9.310;2022-09-09T17:16:46;16.80;99.90
31271;DHT22;17904;47.420;9.310;2022-09-09T17:19:14;16.70;99.90
31271;DHT22;17904;47.420;9.310;2022-09-09T17:21:41;16.60;99.90
31271;DHT22;17904;47.420;9.310;2022-09-09T17:24:28;16.60;99.90
31271;DHT22;17904;47.420;9.310;2022-09-09T17:26:56;16.50;99.90
31271;DHT22;17904;47.420;9.310;2022-09-09T17:29:24;16.40;99.90
31271;DHT22;17904;47.420;9.310;2022-09-09T17:31:51;16.40;99.90
31271;DHT22;17904;47.420;9.310;2022-09-09T17:34:18;16.30;99.90
31271;DHT22;17904;47.420;9.310;2022-09-09T17:36:45;16.30;99.90
31271;DHT22;17904;47.420;9.310;2022-09-09T17:39:12;16.20;99.90
31271;DHT22;17904;47.420;9.310;2022-09-09T17:41:39;16.10;99.90
31271;DHT22;17904;47.420;9.310;2022-09-09T17:44:07;16.10;99.90
31271;DHT22;17904;47.420;9.310;2022-09-09T17:46:41;15.90;99.90
31271;DHT22;17904;47.420;9.310;2022-09-09T17:49:11;15.90;99.90
31271;DHT22;17904;47.420;9.310;2022-09-09T17:51:42;15.80;99.90
31271;DHT22;17904;47.420;9.310;2022-09-09T17:54:11;15.70;99.90
31271;DHT22;17904;47.420;9.310;2022-09-09T17:56:40;15.60;99.90
31271;DHT22;17904;47.420;9.310;2022-09-09T17:59:09;15.60;99.90
31271;DHT22;17904;47.420;9.310;2022-09-09T18:01:38;15.50;99.90
31271;DHT22;17904;47.420;9.310;2022-09-09T18:04:08;15.50;99.90
31271;DHT22;17904;47.420;9.310;2022-09-09T18:06:38;15.50;99.90
31271;DHT22;17904;47.420;9.310;2022-09-09T18:09:11;15.40;99.90
31271;DHT22;17904;47.420;9.310;2022-09-09T18:11:43;15.40;99.90
31271;DHT22;17904;47.420;9.310;2022-09-09T18:14:16;15.40;99.90
31271;DHT22;17904;47.420;9.310;2022-09-09T18:16:44;15.40;99.90
31271;DHT22;17904;47.420;9.310;2022-09-09T18:19:14;15.30;99.90
31271;DHT22;17904;47.420;9.310;2022-09-09T18:21:43;15.30;99.90
31271;DHT22;17904;47.420;9.310;2022-09-09T18:24:12;15.30;99.90